Time;durP1;ratioP1;P1;durP2;ratioP2;P2;SDS_P1;SDS_P2;PMS_P1;PMS_P2;Temp;Humidity;BMP_temperature;BMP_pressure;BME280_temperature;BME280_humidity;BME280_pressure;Samples;Min_cycle;Max_cycle;Signal;HPM_P1;HPM_P2
2022/07/21 00:02:07;;;;;;;;;;;;;;;15.18;82.53;98526.78;4986421;28;20306;-67
2022/07/21 00:04:33;;;;;;;;;;;;;;;15.19;82.32;98516.59;4984651;28;19940;-68
2022/07/21 00:06:59;;;;;;;;;;;;;;;15.16;82.47;98512.53;4967706;28;19929;-67
2022/07/21 00:09:24;;;;;;;;;;;;;;;15.20;82.59;98518.97;4968318;28;19930;-67
2022/07/21 00:11:50;;;;;;;;;;;;;;;15.27;82.42;98519.25;4984214;28;19937;-67
2022/07/21 00:14:17;;;;;;;;;;;;;;;15.21;81.99;98500.53;4985108;28;19972;-67
2022/07/21 00:16:43;;;;;;;;;;;;;;;15.36;82.12;98524.69;4967499;28;19930;-66
2022/07/21 00:19:09;;;;;;;;;;;;;;;15.32;81.46;98516.28;4970988;28;20297;-67
2022/07/21 00:21:35;;;;;;;;;;;;;;;15.28;81.74;98512.59;4953013;28;19956;-67
2022/07/21 00:24:01;;;;;;;;;;;;;;;15.31;81.38;98524.91;4985250;28;19929;-66
2022/07/21 00:26:27;;;;;;;;;;;;;;;15.32;81.42;98516.28;4982487;28;20315;-67
2022/07/21 00:28:52;;;;;;;;;;;;;;;15.37;81.59;98511.69;4987216;28;19934;-65
2022/07/21 00:31:20;;;;;;;;;;;;;;;15.39;81.26;98525.97;4964759;28;20355;-65
2022/07/21 00:33:45;;;;;;;;;;;;;;;15.36;81.45;98527.44;4986751;28;19930;-67
2022/07/21 00:36:11;;;;;;;;;;;;;;;15.36;81.30;98518.34;4968894;28;19930;-66
2022/07/21 00:38:37;;;;;;;;;;;;;;;15.34;81.29;98524.22;4990568;28;19930;-67
2022/07/21 00:41:03;;;;;;;;;;;;;;;15.32;81.55;98521.00;4989106;28;20308;-65
2022/07/21 00:43:28;;;;;;;;;;;;;;;15.32;81.47;98519.03;4972817;28;19934;-66
2022/07/21 00:45:54;;;;;;;;;;;;;;;15.32;81.67;98519.03;4989773;28;19930;-65
2022/07/21 00:48:21;;;;;;;;;;;;;;;15.31;81.67;98520.19;4990543;28;20032;-66
2022/07/21 00:50:48;;;;;;;;;;;;;;;15.30;81.41;98515.03;4988285;28;19929;-65
2022/07/21 00:53:13;;;;;;;;;;;;;;;15.30;81.80;98515.81;4987780;28;20710;-67
2022/07/21 00:55:41;;;;;;;;;;;;;;;15.32;81.64;98512.75;4987080;28;19972;-65
2022/07/21 00:58:07;;;;;;;;;;;;;;;15.31;81.93;98511.91;4970083;28;19930;-65
2022/07/21 01:00:33;;;;;;;;;;;;;;;15.29;81.82;98522.47;4988978;28;19930;-66
2022/07/21 01:02:58;;;;;;;;;;;;;;;15.31;81.52;98519.41;4990501;28;20063;-66
2022/07/21 01:05:25;;;;;;;;;;;;;;;15.32;81.68;98510.00;4970962;28;19983;-65
2022/07/21 01:07:52;;;;;;;;;;;;;;;15.37;81.21;98525.47;4986623;28;20060;-66
2022/07/21 01:10:18;;;;;;;;;;;;;;;15.35;81.37;98514.00;4986222;28;19930;-65
2022/07/21 01:12:44;;;;;;;;;;;;;;;15.36;81.39;98521.94;4986845;28;19972;-66
2022/07/21 01:15:11;;;;;;;;;;;;;;;15.39;81.21;98515.75;4987397;28;19969;-67
2022/07/21 01:17:37;;;;;;;;;;;;;;;15.42;81.11;98517.03;4989793;28;19936;-66
2022/07/21 01:20:05;;;;;;;;;;;;;;;15.39;81.39;98512.97;4989382;28;20036;-67
2022/07/21 01:22:33;;;;;;;;;;;;;;;15.35;81.49;98520.31;4989334;28;19981;-67
2022/07/21 01:24:59;;;;;;;;;;;;;;;15.30;81.99;98524.09;4973676;28;19934;-64
2022/07/21 01:27:25;;;;;;;;;;;;;;;15.27;82.21;98522.00;4987164;28;19929;-67
2022/07/21 01:29:51;;;;;;;;;;;;;;;15.27;82.67;98523.94;4989378;28;19936;-66
2022/07/21 01:32:16;;;;;;;;;;;;;;;15.25;83.14;98526.22;4985553;28;20347;-67
2022/07/21 01:34:42;;;;;;;;;;;;;;;15.22;83.32;98524.97;4985915;28;20473;-67
2022/07/21 01:37:08;;;;;;;;;;;;;;;15.22;83.73;98524.16;4988475;28;20332;-66
2022/07/21 01:42:19;;;;;;;;;;;;;;;15.23;84.16;98525.78;4986633;28;19933;-66
2022/07/21 01:44:45;;;;;;;;;;;;;;;15.23;84.36;98523.84;4952457;28;20389;-65
2022/07/21 01:47:10;;;;;;;;;;;;;;;15.23;84.24;98518.31;4985039;28;20092;-65
2022/07/21 01:49:36;;;;;;;;;;;;;;;15.24;84.63;98517.19;4987009;28;19941;-65
2022/07/21 01:52:02;;;;;;;;;;;;;;;15.25;84.50;98517.97;4988160;28;19930;-65
2022/07/21 01:54:28;;;;;;;;;;;;;;;15.25;84.59;98513.28;4988823;28;20320;-66
2022/07/21 01:56:55;;;;;;;;;;;;;;;15.29;84.69;98507.88;4985052;28;20045;-66
2022/07/21 01:59:21;;;;;;;;;;;;;;;15.34;84.40;98513.22;4969946;28;19930;-64
2022/07/21 02:01:46;;;;;;;;;;;;;;;15.39;84.39;98509.44;4985484;28;19929;-65
2022/07/21 02:04:12;;;;;;;;;;;;;;;15.41;84.21;98516.19;4986631;28;19936;-65
2022/07/21 02:06:38;;;;;;;;;;;;;;;15.44;83.69;98517.47;4969710;28;19934;-65
2022/07/21 02:09:04;;;;;;;;;;;;;;;15.47;83.82;98513.25;4987771;28;19936;-64
2022/07/21 02:11:29;;;;;;;;;;;;;;;15.48;83.56;98523.91;4984771;28;19954;-65
2022/07/21 02:13:57;;;;;;;;;;;;;;;15.50;83.24;98520.84;4984875;28;19929;-66
2022/07/21 02:16:22;;;;;;;;;;;;;;;15.50;83.01;98520.84;4987941;28;20415;-64
2022/07/21 02:18:48;;;;;;;;;;;;;;;15.48;82.52;98521.16;4970103;28;19934;-65
2022/07/21 02:21:15;;;;;;;;;;;;;;;15.48;82.53;98517.63;4968308;28;20415;-64
2022/07/21 02:23:40;;;;;;;;;;;;;;;15.50;82.45;98518.09;4967710;28;20028;-66
2022/07/21 02:26:06;;;;;;;;;;;;;;;15.49;81.86;98519.22;4986077;28;20048;-65
2022/07/21 02:28:32;;;;;;;;;;;;;;;15.48;81.82;98515.66;4968470;28;19929;-66
2022/07/21 02:30:59;;;;;;;;;;;;;;;15.50;81.58;98509.81;4984214;28;19933;-68
2022/07/21 02:33:25;;;;;;;;;;;;;;;15.48;81.33;98501.88;4984462;28;19930;-67
2022/07/21 02:35:50;;;;;;;;;;;;;;;15.49;81.42;98499.94;4986255;28;19957;-65
2022/07/21 02:38:16;;;;;;;;;;;;;;;15.52;81.43;98505.56;4968075;28;19930;-66
2022/07/21 02:40:42;;;;;;;;;;;;;;;15.56;81.15;98498.25;4985836;28;19930;-66
2022/07/21 02:43:08;;;;;;;;;;;;;;;15.55;81.48;98498.56;4966601;28;20395;-66
2022/07/21 02:45:34;;;;;;;;;;;;;;;15.55;81.43;98502.16;4965736;28;19936;-65
2022/07/21 02:48:02;;;;;;;;;;;;;;;15.52;81.60;98508.31;4984087;28;19984;-65
2022/07/21 02:50:29;;;;;;;;;;;;;;;15.53;81.72;98503.63;4967213;28;19941;-66
2022/07/21 02:52:56;;;;;;;;;;;;;;;15.55;81.40;98509.59;4965645;28;19937;-66
2022/07/21 02:55:22;;;;;;;;;;;;;;;15.58;81.75;98509.72;4984712;28;19937;-67
2022/07/21 02:57:48;;;;;;;;;;;;;;;15.57;81.59;98496.28;4985809;28;20020;-67
2022/07/21 03:00:13;;;;;;;;;;;;;;;15.55;81.80;98502.16;4985830;28;20021;-65
2022/07/21 03:02:39;;;;;;;;;;;;;;;15.51;82.08;98498.44;4985134;28;19964;-65
2022/07/21 03:05:07;;;;;;;;;;;;;;;15.38;82.98;98500.38;4985412;28;20377;-64
2022/07/21 03:07:33;;;;;;;;;;;;;;;15.28;84.24;98500.78;4984709;28;19929;-65
2022/07/21 03:09:59;;;;;;;;;;;;;;;15.15;84.62;98503.50;4983782;28;19936;-65
2022/07/21 03:12:24;;;;;;;;;;;;;;;15.08;85.66;98507.94;4983527;28;20368;-64
2022/07/21 03:14:50;;;;;;;;;;;;;;;15.00;86.00;98498.59;4984719;28;19952;-67
2022/07/21 03:17:16;;;;;;;;;;;;;;;14.84;86.50;98479.94;4936068;28;19980;-64
2022/07/21 03:19:41;;;;;;;;;;;;;;;14.92;87.03;98497.53;4984540;28;19936;-64
2022/07/21 03:22:09;;;;;;;;;;;;;;;14.84;87.36;98501.13;4984208;28;19944;-65
2022/07/21 03:24:34;;;;;;;;;;;;;;;14.76;87.65;98494.56;4984834;28;20376;-67
2022/07/21 03:27:00;;;;;;;;;;;;;;;14.78;88.12;98497.78;4985850;28;19961;-65
2022/07/21 03:29:26;;;;;;;;;;;;;;;14.81;88.30;98496.31;4984988;28;19933;-63
2022/07/21 03:31:51;;;;;;;;;;;;;;;14.88;88.64;98496.56;4984195;28;19952;-66
2022/07/21 03:34:17;;;;;;;;;;;;;;;14.89;88.76;98495.44;4983605;28;19952;-67
2022/07/21 03:36:43;;;;;;;;;;;;;;;14.88;89.17;98502.91;4985852;28;19972;-64
2022/07/21 03:39:10;;;;;;;;;;;;;;;14.90;89.78;98491.53;4985490;28;20376;-65
2022/07/21 03:41:35;;;;;;;;;;;;;;;14.91;90.06;98492.34;4965535;28;20008;-66
2022/07/21 03:44:01;;;;;;;;;;;;;;;14.88;90.46;98497.38;4983609;28;19933;-64
2022/07/21 03:46:27;;;;;;;;;;;;;;;14.92;90.42;98494.78;4986542;28;20369;-65
2022/07/21 03:48:52;;;;;;;;;;;;;;;14.88;90.33;98493.81;4985258;28;19930;-65
2022/07/21 03:51:18;;;;;;;;;;;;;;;14.87;90.33;98498.53;4981904;28;20290;-66
2022/07/21 03:53:44;;;;;;;;;;;;;;;14.87;90.19;98503.22;4965778;28;19994;-65
2022/07/21 03:56:11;;;;;;;;;;;;;;;14.80;90.29;98500.22;4984244;28;19961;-65
2022/07/21 03:58:37;;;;;;;;;;;;;;;14.80;90.62;98495.50;4982309;28;20371;-65
2022/07/21 04:01:03;;;;;;;;;;;;;;;14.78;90.79;98499.75;4986498;28;19937;-65
2022/07/21 04:03:30;;;;;;;;;;;;;;;14.69;91.52;98495.06;4967763;28;19937;-64
2022/07/21 04:05:56;;;;;;;;;;;;;;;14.70;91.99;98498.63;4949233;28;19965;-66
2022/07/21 04:08:22;;;;;;;;;;;;;;;14.75;91.89;98492.94;4967039;28;20007;-65
2022/07/21 04:10:47;;;;;;;;;;;;;;;14.78;92.03;98500.53;4987953;28;19965;-65
2022/07/21 04:13:15;;;;;;;;;;;;;;;14.71;92.17;98478.22;4987159;28;20393;-66
2022/07/21 04:15:40;;;;;;;;;;;;;;;14.89;91.76;98493.50;4988848;28;20319;-66
2022/07/21 04:18:07;;;;;;;;;;;;;;;14.96;91.72;98497.66;4987013;28;20024;-66
2022/07/21 04:20:33;;;;;;;;;;;;;;;15.02;91.59;98502.63;4986609;28;20459;-67
2022/07/21 04:22:58;;;;;;;;;;;;;;;15.09;91.20;98496.56;4985253;28;19933;-67
2022/07/21 04:25:24;;;;;;;;;;;;;;;15.14;91.21;98498.31;4970775;28;19930;-66
2022/07/21 04:27:50;;;;;;;;;;;;;;;15.14;90.93;98496.38;4957402;28;19938;-66
2022/07/21 04:30:18;;;;;;;;;;;;;;;15.14;91.08;98499.13;4928279;29;19931;-67
2022/07/21 04:32:44;;;;;;;;;;;;;;;15.17;91.10;98501.22;4929665;29;19946;-66
2022/07/21 04:35:10;;;;;;;;;;;;;;;15.22;90.64;98500.19;4944887;29;19931;-67
2022/07/21 04:37:36;;;;;;;;;;;;;;;15.30;90.38;98495.75;4926918;29;19934;-66
2022/07/21 04:40:03;;;;;;;;;;;;;;;15.40;89.86;98498.06;4928379;29;19937;-67
2022/07/21 04:42:30;;;;;;;;;;;;;;;15.47;89.09;98503.03;4928184;29;20362;-65
2022/07/21 04:44:55;;;;;;;;;;;;;;;15.55;88.40;98496.63;4930140;28;19937;-65
2022/07/21 04:47:23;;;;;;;;;;;;;;;15.62;87.89;98495.28;4930327;29;20021;-67
2022/07/21 04:49:48;;;;;;;;;;;;;;;15.66;87.07;98493.44;4930553;29;19954;-64
2022/07/21 04:52:14;;;;;;;;;;;;;;;15.70;86.50;98500.69;4928066;29;19982;-67
2022/07/21 04:54:40;;;;;;;;;;;;;;;15.74;85.84;98498.06;4930629;29;19931;-66
2022/07/21 04:57:06;;;;;;;;;;;;;;;15.74;85.61;98489.78;4927767;29;19946;-65
2022/07/21 04:59:32;;;;;;;;;;;;;;;15.73;85.23;98500.00;4926268;29;20361;-66
2022/07/21 05:01:58;;;;;;;;;;;;;;;15.73;84.99;98496.44;4926689;29;20421;-66
2022/07/21 05:04:26;;;;;;;;;;;;;;;15.72;84.77;98506.66;4912201;29;19931;-65
2022/07/21 05:06:51;;;;;;;;;;;;;;;15.70;85.22;98497.94;4908361;29;20421;-65
2022/07/21 05:09:17;;;;;;;;;;;;;;;15.71;84.88;98499.53;4908215;29;19938;-65
2022/07/21 05:11:43;;;;;;;;;;;;;;;15.74;84.89;98496.09;4924186;29;19930;-65
2022/07/21 05:14:08;;;;;;;;;;;;;;;15.78;84.80;98498.19;4927967;29;19942;-65
2022/07/21 05:16:34;;;;;;;;;;;;;;;15.80;84.75;98493.94;4928816;29;19930;-67
2022/07/21 05:19:00;;;;;;;;;;;;;;;15.84;84.72;98496.81;4925991;29;19962;-66
2022/07/21 05:21:27;;;;;;;;;;;;;;;15.86;84.51;98505.53;4929126;29;19931;-66
2022/07/21 05:23:53;;;;;;;;;;;;;;;15.84;83.91;98505.91;4928320;29;20022;-64
2022/07/21 05:26:19;;;;;;;;;;;;;;;15.86;83.82;98509.09;4929232;29;20319;-65
2022/07/21 05:28:44;;;;;;;;;;;;;;;15.89;83.80;98510.38;4926821;29;19970;-63
2022/07/21 05:31:10;;;;;;;;;;;;;;;15.94;83.45;98512.94;4925849;28;19931;-66
2022/07/21 05:33:36;;;;;;;;;;;;;;;16.05;83.41;98513.28;4924952;29;19941;-66
2022/07/21 05:36:02;;;;;;;;;;;;;;;16.18;82.91;98518.81;4928295;29;19935;-66
2022/07/21 05:38:29;;;;;;;;;;;;;;;16.29;82.58;98511.69;4930057;29;20042;-65
2022/07/21 05:40:55;;;;;;;;;;;;;;;16.39;81.84;98510.41;4924266;29;20325;-65
2022/07/21 05:43:21;;;;;;;;;;;;;;;16.50;81.36;98513.53;4917524;29;19931;-65
2022/07/21 05:45:47;;;;;;;;;;;;;;;16.66;80.37;98510.88;4908106;29;20311;-66
2022/07/21 05:48:14;;;;;;;;;;;;;;;16.71;79.82;98516.16;4922796;29;20042;-65
2022/07/21 05:50:39;;;;;;;;;;;;;;;16.71;79.50;98516.16;4914638;29;19937;-64
2022/07/21 05:53:05;;;;;;;;;;;;;;;16.71;79.68;98516.94;4923821;29;20364;-64
2022/07/21 05:55:32;;;;;;;;;;;;;;;16.73;79.24;98520.16;4919051;29;20410;-65
2022/07/21 05:57:58;;;;;;;;;;;;;;;16.83;79.29;98512.56;4916669;29;20428;-67
2022/07/21 06:00:24;;;;;;;;;;;;;;;17.01;79.04;98518.63;4916823;29;19946;-66
2022/07/21 06:02:50;;;;;;;;;;;;;;;17.25;78.63;98522.50;4915275;29;19937;-66
2022/07/21 06:05:16;;;;;;;;;;;;;;;17.48;77.59;98524.69;4916296;29;19931;-66
2022/07/21 06:07:42;;;;;;;;;;;;;;;17.76;76.60;98518.34;4919855;29;20012;-65
2022/07/21 06:10:08;;;;;;;;;;;;;;;17.90;75.79;98515.16;4928321;29;19930;-65
2022/07/21 06:12:35;;;;;;;;;;;;;;;18.06;75.41;98516.00;4916680;29;19965;-65
2022/07/21 06:15:01;;;;;;;;;;;;;;;18.17;74.59;98519.03;4918514;29;19938;-65
2022/07/21 06:17:31;;;;;;;;;;;;;;;18.17;74.82;98516.25;4918794;29;19931;-66
2022/07/21 06:19:56;;;;;;;;;;;;;;;18.11;74.31;98515.72;4918283;29;19931;-65
2022/07/21 06:22:22;;;;;;;;;;;;;;;18.30;73.92;98522.50;4931434;29;19930;-66
2022/07/21 06:24:48;;;;;;;;;;;;;;;18.42;73.51;98524.38;4935673;29;20248;-66
2022/07/21 06:27:14;;;;;;;;;;;;;;;18.58;72.88;98523.53;4921261;29;19930;-67
2022/07/21 06:29:41;;;;;;;;;;;;;;;18.69;72.16;98530.09;4925333;29;19931;-66
2022/07/21 06:32:07;;;;;;;;;;;;;;;18.59;71.73;98525.94;4920524;29;19930;-66
2022/07/21 06:34:32;;;;;;;;;;;;;;;18.42;71.96;98540.97;4926066;29;19961;-65
2022/07/21 06:37:00;;;;;;;;;;;;;;;18.18;72.37;98534.47;4922975;29;20719;-65
2022/07/21 06:39:26;;;;;;;;;;;;;;;17.96;72.77;98539.41;4902893;29;20995;-66
2022/07/21 06:41:52;;;;;;;;;;;;;;;17.79;73.39;98543.31;4898007;29;19934;-65
2022/07/21 06:44:17;;;;;;;;;;;;;;;17.60;74.09;98543.97;4916735;29;19932;-68
2022/07/21 06:46:45;;;;;;;;;;;;;;;17.50;74.38;98545.28;4919602;28;19931;-66
2022/07/21 06:49:10;;;;;;;;;;;;;;;17.54;74.18;98553.69;4920146;29;19930;-66
2022/07/21 06:51:36;;;;;;;;;;;;;;;17.65;73.74;98552.03;4915725;29;19937;-67
2022/07/21 06:54:02;;;;;;;;;;;;;;;17.68;72.75;98561.56;4912066;29;19931;-65
2022/07/21 06:56:27;;;;;;;;;;;;;;;17.58;73.04;98555.41;4921348;29;19937;-65
2022/07/21 06:58:53;;;;;;;;;;;;;;;17.55;73.13;98566.34;4931339;29;20534;-66
2022/07/21 07:01:19;;;;;;;;;;;;;;;17.41;73.38;98567.53;4913557;29;19942;-67
2022/07/21 07:03:47;;;;;;;;;;;;;;;17.26;74.36;98557.22;4917406;29;19935;-67
2022/07/21 07:06:13;;;;;;;;;;;;;;;17.15;75.07;98568.75;4916328;29;19950;-67
2022/07/21 07:08:39;;;;;;;;;;;;;;;17.05;75.99;98571.22;4932170;29;19942;-65
2022/07/21 07:11:05;;;;;;;;;;;;;;;16.91;76.75;98574.31;4919174;29;20014;-66
2022/07/21 07:13:31;;;;;;;;;;;;;;;16.76;77.71;98556.50;4910425;29;20001;-67
2022/07/21 07:15:56;;;;;;;;;;;;;;;16.88;78.25;98575.81;4924477;29;20002;-68
2022/07/21 07:18:23;;;;;;;;;;;;;;;16.84;79.36;98585.94;4913964;29;19931;-65
2022/07/21 07:20:51;;;;;;;;;;;;;;;16.71;81.21;98580.44;4898818;29;19935;-65
2022/07/21 07:23:17;;;;;;;;;;;;;;;16.67;82.34;98585.03;4916701;29;20029;-65
2022/07/21 07:25:43;;;;;;;;;;;;;;;17.07;81.98;98596.50;4915563;29;19930;-66
2022/07/21 07:28:09;;;;;;;;;;;;;;;17.83;79.71;98599.50;4923140;29;20060;-67
2022/07/21 07:30:35;;;;;;;;;;;;;;;18.18;77.91;98605.56;4917088;29;20402;-66
2022/07/21 07:33:01;;;;;;;;;;;;;;;18.27;76.08;98601.47;4907577;29;19931;-65
2022/07/21 07:35:27;;;;;;;;;;;;;;;18.23;75.73;98608.06;4906001;29;19979;-67
2022/07/21 07:37:54;;;;;;;;;;;;;;;18.09;75.74;98625.06;4912263;29;19986;-66
2022/07/21 07:40:20;;;;;;;;;;;;;;;17.86;76.43;98618.13;4917156;29;20021;-65
2022/07/21 07:42:46;;;;;;;;;;;;;;;17.95;76.56;98619.94;4908060;29;20393;-65
2022/07/21 07:45:13;;;;;;;;;;;;;;;18.61;74.85;98628.00;4911444;29;19985;-66
2022/07/21 07:47:39;;;;;;;;;;;;;;;19.51;71.83;98610.66;4913097;29;19930;-66
2022/07/21 07:50:05;;;;;;;;;;;;;;;20.26;68.36;98631.94;4919895;29;19938;-65
2022/07/21 07:52:31;;;;;;;;;;;;;;;20.14;67.91;98638.47;4917901;29;19937;-66
2022/07/21 07:54:58;;;;;;;;;;;;;;;19.54;69.20;98645.19;4921740;29;19935;-65
2022/07/21 07:57:24;;;;;;;;;;;;;;;19.02;69.88;98661.03;4913103;29;19931;-65
2022/07/21 07:59:50;;;;;;;;;;;;;;;18.63;71.35;98662.44;4915175;29;19994;-65
2022/07/21 08:02:16;;;;;;;;;;;;;;;18.35;73.03;98662.53;4919053;29;20379;-65
2022/07/21 08:04:41;;;;;;;;;;;;;;;18.38;73.43;98665.38;4931926;29;19937;-65
2022/07/21 08:07:08;;;;;;;;;;;;;;;18.80;72.12;98655.75;4572506;28;10000185;-67
2022/07/21 08:09:34;;;;;;;;;;;;;;;19.21;70.23;98669.41;4907508;29;20314;-67
2022/07/21 08:12:01;;;;;;;;;;;;;;;19.56;68.71;98668.56;4907495;29;20394;-66
2022/07/21 08:14:26;;;;;;;;;;;;;;;19.95;67.23;98672.56;4911940;29;19930;-66
2022/07/21 08:16:52;;;;;;;;;;;;;;;20.14;66.12;98665.41;4910481;28;19937;-66
2022/07/21 08:19:18;;;;;;;;;;;;;;;20.05;65.73;98669.19;4910511;28;19931;-65
2022/07/21 08:21:44;;;;;;;;;;;;;;;20.01;66.03;98671.09;4913448;29;19931;-65
2022/07/21 08:24:16;;;;;;;;;;;;;;;20.33;65.77;98678.44;4786472;28;9999919;-66
2022/07/21 08:26:41;;;;;;;;;;;;;;;20.66;64.09;98683.38;4924615;29;19931;-66
2022/07/21 08:29:08;;;;;;;;;;;;;;;20.81;63.68;98683.66;4913381;29;19930;-65
2022/07/21 08:31:38;;;;;;;;;;;;;;;20.86;63.57;98683.38;4913569;29;19969;-67
2022/07/21 08:34:03;;;;;;;;;;;;;;;20.77;63.67;98683.59;4921051;29;20021;-67
2022/07/21 08:36:29;;;;;;;;;;;;;;;20.53;63.75;98693.09;4913561;29;20381;-65
2022/07/21 08:38:55;;;;;;;;;;;;;;;20.50;63.59;98691.03;4912632;29;19935;-67
2022/07/21 08:41:21;;;;;;;;;;;;;;;20.88;62.82;98691.31;4916729;29;19930;-66
2022/07/21 08:43:48;;;;;;;;;;;;;;;21.55;61.00;98695.53;4908185;29;19931;-66
2022/07/21 08:46:16;;;;;;;;;;;;;;;21.69;59.97;98694.94;4909813;29;19942;-67
2022/07/21 08:48:42;;;;;;;;;;;;;;;22.21;58.32;98692.38;4920619;29;19938;-67
2022/07/21 08:51:08;;;;;;;;;;;;;;;23.15;55.88;98698.03;4919906;29;19931;-67
2022/07/21 08:53:34;;;;;;;;;;;;;;;23.97;53.09;98698.13;4918364;29;19941;-66
2022/07/21 08:55:59;;;;;;;;;;;;;;;23.59;52.74;98709.50;4910281;29;19967;-68
2022/07/21 08:58:25;;;;;;;;;;;;;;;23.49;53.21;98706.28;4906809;29;19939;-65
2022/07/21 09:00:51;;;;;;;;;;;;;;;23.21;53.90;98723.56;4899580;29;20429;-66
2022/07/21 09:03:19;;;;;;;;;;;;;;;23.60;52.77;98725.03;4919879;29;19931;-67
2022/07/21 09:05:59;;;;;;;;;;;;;;;23.56;53.22;98730.59;4912936;29;19930;-68
2022/07/21 09:08:28;;;;;;;;;;;;;;;24.38;51.03;98725.81;4912651;29;20409;-68
2022/07/21 09:11:06;;;;;;;;;;;;;;;24.24;50.32;98717.41;4913143;29;19938;-65
2022/07/21 09:13:32;;;;;;;;;;;;;;;24.74;49.11;98731.47;4906979;29;20030;-66
2022/07/21 09:15:58;;;;;;;;;;;;;;;25.25;47.50;98736.31;4923315;28;20394;-66
2022/07/21 09:18:25;;;;;;;;;;;;;;;25.20;47.62;98738.28;4913792;29;20025;-66
2022/07/21 09:20:52;;;;;;;;;;;;;;;26.06;46.10;98738.53;4919271;29;19946;-66
2022/07/21 09:23:20;;;;;;;;;;;;;;;27.16;43.85;98745.91;4915940;29;19931;-66
2022/07/21 09:25:46;;;;;;;;;;;;;;;27.65;41.55;98742.28;4917028;29;19931;-66
2022/07/21 09:28:14;;;;;;;;;;;;;;;27.94;41.16;98749.59;4914399;29;20414;-67
2022/07/21 09:30:50;;;;;;;;;;;;;;;28.10;40.68;98754.63;4917679;29;20386;-66
2022/07/21 09:33:20;;;;;;;;;;;;;;;28.09;40.15;98741.78;4906435;29;19931;-68
2022/07/21 09:35:58;;;;;;;;;;;;;;;27.62;41.21;98747.94;4916370;29;20362;-68
2022/07/21 09:38:24;;;;;;;;;;;;;;;28.74;38.17;98752.19;4906690;29;19935;-68
2022/07/21 09:40:50;;;;;;;;;;;;;;;28.66;38.62;98751.50;4913803;29;19931;-67
2022/07/21 09:43:28;;;;;;;;;;;;;;;29.17;37.15;98758.38;4914723;29;19983;-68
2022/07/21 09:45:55;;;;;;;;;;;;;;;28.52;37.89;98760.13;4916022;29;19963;-68
2022/07/21 09:48:33;;;;;;;;;;;;;;;28.65;37.50;98755.53;4918111;29;20346;-68
2022/07/21 09:51:14;;;;;;;;;;;;;;;29.11;35.69;98760.88;4915065;29;19939;-68
2022/07/21 09:53:49;;;;;;;;;;;;;;;29.15;35.47;98764.44;4918990;29;19935;-68
2022/07/21 09:56:15;;;;;;;;;;;;;;;29.58;34.51;98755.28;4927299;29;19954;-68
2022/07/21 09:58:41;;;;;;;;;;;;;;;29.90;33.72;98750.25;4919183;29;19958;-68
2022/07/21 10:01:07;;;;;;;;;;;;;;;30.10;32.82;98760.75;4916730;29;19931;-68
2022/07/21 10:03:33;;;;;;;;;;;;;;;30.36;32.31;98759.00;4922976;29;19930;-67
2022/07/21 10:05:59;;;;;;;;;;;;;;;30.51;32.49;98770.75;4912185;29;19942;-68
2022/07/21 10:08:25;;;;;;;;;;;;;;;30.93;32.34;98761.78;4919693;28;20437;-66
2022/07/21 10:10:52;;;;;;;;;;;;;;;30.97;31.34;98761.66;4572701;28;9999753;-66
2022/07/21 10:13:18;;;;;;;;;;;;;;;30.43;32.61;98764.47;4913318;29;19931;-68
2022/07/21 10:15:45;;;;;;;;;;;;;;;28.92;34.45;98773.63;4911597;29;20318;-67
2022/07/21 10:18:13;;;;;;;;;;;;;;;28.52;35.05;98779.81;4914018;29;19931;-65
2022/07/21 10:20:44;;;;;;;;;;;;;;;28.22;34.85;98778.56;4912863;29;20404;-65
2022/07/21 10:23:11;;;;;;;;;;;;;;;28.52;33.92;98775.00;4909440;29;20430;-67
2022/07/21 10:25:38;;;;;;;;;;;;;;;27.75;35.31;98777.06;4914646;29;19931;-65
2022/07/21 10:28:17;;;;;;;;;;;;;;;27.13;37.09;98776.78;4912000;29;20062;-66
2022/07/21 10:30:44;;;;;;;;;;;;;;;26.52;38.58;98781.56;4910584;29;19991;-67
2022/07/21 10:33:10;;;;;;;;;;;;;;;26.01;39.03;98784.56;4914141;29;19935;-65
2022/07/21 10:35:40;;;;;;;;;;;;;;;25.72;38.81;98789.41;4906404;29;19938;-64
2022/07/21 10:38:06;;;;;;;;;;;;;;;25.20;39.71;98785.81;4922080;29;20347;-66
2022/07/21 10:40:38;;;;;;;;;;;;;;;25.47;39.83;98787.44;4904244;29;19931;-66
2022/07/21 10:43:23;;;;;;;;;;;;;;;26.85;36.96;98786.97;4912992;29;20355;-66
2022/07/21 10:45:51;;;;;;;;;;;;;;;27.99;35.14;98794.84;4901325;29;19994;-66
2022/07/21 10:48:31;;;;;;;;;;;;;;;28.38;34.10;98804.06;4923588;29;20406;-68
2022/07/21 10:50:58;;;;;;;;;;;;;;;29.01;33.66;98799.22;4900679;29;20017;-67
2022/07/21 10:53:24;;;;;;;;;;;;;;;28.87;33.66;98801.03;4916557;29;20097;-65
2022/07/21 10:55:50;;;;;;;;;;;;;;;27.70;35.04;98797.19;4920841;29;19957;-65
2022/07/21 10:58:18;;;;;;;;;;;;;;;26.51;37.40;98799.59;4913730;29;19931;-65
2022/07/21 11:00:44;;;;;;;;;;;;;;;25.60;38.97;98813.84;4924098;29;19930;-64
2022/07/21 11:03:17;;;;;;;;;;;;;;;24.72;42.23;98820.50;4918304;29;20410;-65
2022/07/21 11:05:57;;;;;;;;;;;;;;;23.20;50.30;98839.84;4915778;29;19985;-65
2022/07/21 11:08:29;;;;;;;;;;;;;;;21.53;54.52;98840.47;4916644;29;20014;-65
2022/07/21 11:11:06;;;;;;;;;;;;;;;20.68;57.71;98844.91;4917792;29;20055;-66
2022/07/21 11:13:53;;;;;;;;;;;;;;;20.35;59.19;98843.41;4921674;29;19930;-67
2022/07/21 11:16:19;;;;;;;;;;;;;;;20.22;59.18;98850.31;4893148;29;19982;-67
2022/07/21 11:18:46;;;;;;;;;;;;;;;20.35;58.91;98850.97;4919814;29;19938;-66
2022/07/21 11:21:13;;;;;;;;;;;;;;;21.50;56.69;98843.19;4914855;29;19931;-65
2022/07/21 11:23:40;;;;;;;;;;;;;;;23.82;51.19;98854.31;4915369;29;19931;-65
2022/07/21 11:26:07;;;;;;;;;;;;;;;23.98;49.48;98848.47;4919602;29;19959;-65
2022/07/21 11:28:33;;;;;;;;;;;;;;;24.67;47.99;98850.81;4916313;29;20218;-66
2022/07/21 11:31:09;;;;;;;;;;;;;;;25.79;44.97;98851.00;4931941;29;19934;-67
2022/07/21 11:33:35;;;;;;;;;;;;;;;25.30;45.90;98851.38;4908436;29;19935;-65
2022/07/21 11:36:02;;;;;;;;;;;;;;;24.16;47.60;98847.78;4904277;29;19977;-68
2022/07/21 11:38:28;;;;;;;;;;;;;;;23.31;50.64;98873.44;4911498;29;19974;-66
2022/07/21 11:40:54;;;;;;;;;;;;;;;22.69;52.80;98868.34;4912738;29;20413;-65
2022/07/21 11:43:20;;;;;;;;;;;;;;;22.48;53.28;98866.91;4919983;29;19942;-65
2022/07/21 11:45:51;;;;;;;;;;;;;;;22.79;52.68;98873.25;4915608;29;19931;-65
2022/07/21 11:48:29;;;;;;;;;;;;;;;24.80;48.84;98865.25;4915706;29;20614;-66
2022/07/21 11:50:58;;;;;;;;;;;;;;;27.05;43.78;98868.59;4912359;29;19954;-65
2022/07/21 11:53:26;;;;;;;;;;;;;;;27.65;42.23;98870.63;4914594;29;19937;-65
2022/07/21 11:55:53;;;;;;;;;;;;;;;27.46;41.29;98858.69;4902978;29;20037;-67
2022/07/21 11:58:19;;;;;;;;;;;;;;;26.79;40.93;98862.31;4911522;29;19939;-67
2022/07/21 12:00:46;;;;;;;;;;;;;;;26.66;40.85;98864.00;4917094;29;19941;-67
2022/07/21 12:03:13;;;;;;;;;;;;;;;26.40;41.18;98878.09;4914837;29;20409;-65
2022/07/21 12:05:39;;;;;;;;;;;;;;;26.21;41.05;98873.75;4912069;29;19935;-66
2022/07/21 12:08:05;;;;;;;;;;;;;;;25.84;42.06;98872.97;4917005;29;20029;-68
2022/07/21 12:10:32;;;;;;;;;;;;;;;25.51;42.78;98872.19;4913910;29;19981;-66
2022/07/21 12:12:59;;;;;;;;;;;;;;;26.01;41.75;98876.16;4916985;29;20370;-68
2022/07/21 12:15:31;;;;;;;;;;;;;;;26.25;40.93;98854.91;4912349;29;19962;-65
2022/07/21 12:17:58;;;;;;;;;;;;;;;27.81;38.42;98875.69;4914658;29;19934;-66
2022/07/21 12:20:24;;;;;;;;;;;;;;;28.97;35.76;98880.06;4916393;29;19938;-65
2022/07/21 12:22:50;;;;;;;;;;;;;;;29.38;34.55;98875.44;4907575;29;19938;-68
2022/07/21 12:25:17;;;;;;;;;;;;;;;30.52;32.29;98881.50;4918279;29;19937;-65
2022/07/21 12:27:45;;;;;;;;;;;;;;;31.41;31.47;98883.63;4919938;29;19937;-66
2022/07/21 12:30:28;;;;;;;;;;;;;;;31.94;29.40;98871.44;4910683;29;19979;-68
2022/07/21 12:32:54;;;;;;;;;;;;;;;31.25;29.99;98875.94;4925595;29;19931;-68
2022/07/21 12:35:21;;;;;;;;;;;;;;;29.43;32.87;98878.59;4924418;29;19942;-67
2022/07/21 12:37:58;;;;;;;;;;;;;;;29.10;33.97;98881.06;4913068;29;19930;-68
2022/07/21 12:40:25;;;;;;;;;;;;;;;28.05;35.56;98885.09;4921829;29;20481;-66
2022/07/21 12:43:02;;;;;;;;;;;;;;;26.65;37.89;98882.00;4917288;29;20395;-67
2022/07/21 12:45:28;;;;;;;;;;;;;;;25.02;39.87;98897.66;4920719;29;19931;-65
2022/07/21 12:48:05;;;;;;;;;;;;;;;24.83;40.49;98886.84;4928099;29;19938;-65